Time;durP1;ratioP1;P1;durP2;ratioP2;P2;SDS_P1;SDS_P2;PMS_P1;PMS_P2;Temp;Humidity;BMP_temperature;BMP_pressure;BME280_temperature;BME280_humidity;BME280_pressure;Samples;Min_cycle;Max_cycle;Signal;HPM_P1;HPM_P2
2023/01/08 00:00:04;;;;;;;;;;;12.80;99.90;13.10;99082.00;;;;348920;27;82449;-88
2023/01/08 00:00:16;;;;;;;;;;;12.70;99.90;13.10;99074.00;;;;348009;27;95153;-87
2023/01/08 00:00:28;;;;;;;;;;;12.70;99.90;13.10;99068.00;;;;347469;28;83446;-88
2023/01/08 00:00:40;;;;;;;;;;;12.70;99.90;13.10;99076.00;;;;346617;27;96678;-88
2023/01/08 00:00:51;;;;;;;;;;;12.70;99.90;13.10;99075.00;;;;347076;28;83609;-87
2023/01/08 00:01:07;;;;;;;;;;;12.80;99.90;13.10;99071.00;;;;343979;28;96028;-87
2023/01/08 00:01:19;;;;;;;;;;;12.70;99.90;13.10;99073.00;;;;348721;27;82506;-88
2023/01/08 00:01:31;;;;;;;;;;;12.70;99.90;13.10;99067.00;;;;347845;27;95500;-88
2023/01/08 00:01:43;;;;;;;;;;;12.70;99.90;13.10;99067.00;;;;349580;27;83237;-88
2023/01/08 00:01:55;;;;;;;;;;;12.70;99.90;13.10;99071.00;;;;346419;28;94483;-88
2023/01/08 00:02:06;;;;;;;;;;;12.70;99.90;13.20;99075.00;;;;347502;27;83464;-87
2023/01/08 00:02:18;;;;;;;;;;;12.70;99.90;13.20;99078.00;;;;346414;28;97995;-88
2023/01/08 00:02:30;;;;;;;;;;;12.70;99.90;13.20;99078.00;;;;348917;27;83459;-88
2023/01/08 00:02:42;;;;;;;;;;;12.70;99.90;13.10;99080.00;;;;347926;27;94117;-88
2023/01/08 00:02:54;;;;;;;;;;;12.70;99.90;13.10;99079.00;;;;346800;28;84091;-88
2023/01/08 00:03:05;;;;;;;;;;;12.70;99.90;13.10;99079.00;;;;345447;28;94533;-88
2023/01/08 00:03:17;;;;;;;;;;;12.80;99.90;13.00;99070.00;;;;346343;27;83620;-88
2023/01/08 00:03:29;;;;;;;;;;;12.70;99.90;13.10;99078.00;;;;346428;27;94225;-88
2023/01/08 00:03:41;;;;;;;;;;;12.70;99.90;13.10;99071.00;;;;348945;27;83421;-88
2023/01/08 00:03:53;;;;;;;;;;;12.70;99.90;13.10;99077.00;;;;347987;27;96890;-88
2023/01/08 00:04:05;;;;;;;;;;;12.70;99.90;13.10;99071.00;;;;350336;27;83454;-87
2023/01/08 00:04:17;;;;;;;;;;;12.70;99.90;13.10;99081.00;;;;343872;28;98124;-88
2023/01/08 00:04:29;;;;;;;;;;;12.80;99.90;13.10;99088.00;;;;346288;28;83234;-88
2023/01/08 00:04:41;;;;;;;;;;;12.70;99.90;13.10;99088.00;;;;345299;28;94271;-88
2023/01/08 00:04:52;;;;;;;;;;;12.70;99.90;13.10;99076.00;;;;346020;28;82447;-88
2023/01/08 00:05:05;;;;;;;;;;;12.70;99.90;13.10;99079.00;;;;345323;28;94888;-88
2023/01/08 00:05:16;;;;;;;;;;;12.70;99.90;13.10;99091.00;;;;348293;27;83435;-87
2023/01/08 00:05:28;;;;;;;;;;;12.80;99.90;13.10;99074.00;;;;348743;27;94364;-88
2023/01/08 00:05:40;;;;;;;;;;;12.70;99.90;13.10;99074.00;;;;348990;27;82586;-88
2023/01/08 00:05:52;;;;;;;;;;;12.70;99.90;13.10;99071.00;;;;348104;27;96374;-88
2023/01/08 00:06:05;;;;;;;;;;;12.70;99.90;13.00;99070.00;;;;347403;27;83529;-88
2023/01/08 00:06:18;;;;;;;;;;;12.70;99.90;13.10;99081.00;;;;345245;28;97441;-88
2023/01/08 00:06:30;;;;;;;;;;;12.70;99.90;13.10;99083.00;;;;346438;28;83205;-88
2023/01/08 00:06:41;;;;;;;;;;;12.70;99.90;13.10;99069.00;;;;348069;27;96107;-88
2023/01/08 00:06:53;;;;;;;;;;;12.70;99.90;13.10;99074.00;;;;347341;28;82613;-88
2023/01/08 00:07:05;;;;;;;;;;;12.70;99.90;13.10;99079.00;;;;345358;28;96674;-87
2023/01/08 00:07:20;;;;;;;;;;;12.70;99.90;13.10;99074.00;;;;346469;28;83292;-88
2023/01/08 00:07:31;;;;;;;;;;;12.70;99.90;13.10;99064.00;;;;345337;28;96645;-88
2023/01/08 00:07:43;;;;;;;;;;;12.70;99.90;13.10;99081.00;;;;347314;28;83455;-88
2023/01/08 00:07:55;;;;;;;;;;;12.70;99.90;13.10;99062.00;;;;345307;28;96640;-88
2023/01/08 00:08:10;;;;;;;;;;;12.70;99.90;13.10;99071.00;;;;348311;27;83405;-88
2023/01/08 00:08:21;;;;;;;;;;;12.70;99.90;13.10;99086.00;;;;345408;28;94145;-88
2023/01/08 00:08:33;;;;;;;;;;;12.70;99.90;13.10;99079.00;;;;346258;28;83297;-88
2023/01/08 00:08:45;;;;;;;;;;;12.70;99.90;13.10;99079.00;;;;348062;27;93828;-88
2023/01/08 00:08:57;;;;;;;;;;;12.70;99.90;13.10;99068.00;;;;347458;28;82654;-88
2023/01/08 00:09:09;;;;;;;;;;;12.70;99.90;13.10;99068.00;;;;345934;28;96842;-88
2023/01/08 00:09:21;;;;;;;;;;;12.80;99.90;13.10;99075.00;;;;346102;28;83213;-88
2023/01/08 00:09:33;;;;;;;;;;;12.80;99.90;13.10;99065.00;;;;346726;27;94139;-88
2023/01/08 00:09:46;;;;;;;;;;;12.80;99.90;13.10;99065.00;;;;347817;27;83530;-88
2023/01/08 00:09:58;;;;;;;;;;;12.70;99.90;13.10;99073.00;;;;346380;28;95482;-87
2023/01/08 00:10:10;;;;;;;;;;;12.80;99.90;13.10;99058.00;;;;347396;28;83476;-88
2023/01/08 00:10:21;;;;;;;;;;;12.70;99.90;13.10;99070.00;;;;345226;28;98338;-87
2023/01/08 00:10:37;;;;;;;;;;;12.80;99.90;13.20;99067.00;;;;345686;28;83287;-88
2023/01/08 00:10:53;;;;;;;;;;;12.70;99.90;13.10;99066.00;;;;347132;27;96748;-88
2023/01/08 00:11:05;;;;;;;;;;;12.80;99.90;13.10;99084.00;;;;346271;28;82588;-88
2023/01/08 00:11:16;;;;;;;;;;;12.80;99.90;13.10;99071.00;;;;347960;27;96349;-88
2023/01/08 00:11:28;;;;;;;;;;;12.80;99.90;13.10;99079.00;;;;350324;27;83449;-88
2023/01/08 00:11:40;;;;;;;;;;;12.80;99.90;13.20;99060.00;;;;346035;28;97408;-88
2023/01/08 00:11:52;;;;;;;;;;;12.80;99.90;13.20;99073.00;;;;346051;27;83393;-88
2023/01/08 00:12:05;;;;;;;;;;;12.80;99.90;13.10;99069.00;;;;346654;28;96351;-88
2023/01/08 00:12:17;;;;;;;;;;;12.80;99.90;13.10;99070.00;;;;348463;27;83375;-88
2023/01/08 00:12:29;;;;;;;;;;;12.80;99.90;13.10;99070.00;;;;346605;28;97708;-88
2023/01/08 00:12:41;;;;;;;;;;;12.80;99.90;13.20;99076.00;;;;347407;28;83372;-88
2023/01/08 00:12:54;;;;;;;;;;;12.80;99.90;13.10;99080.00;;;;346617;27;97146;-88
2023/01/08 00:13:06;;;;;;;;;;;12.80;99.90;13.10;99072.00;;;;348402;27;83551;-88
2023/01/08 00:13:18;;;;;;;;;;;12.80;99.90;13.10;99071.00;;;;348106;27;96516;-89
2023/01/08 00:13:29;;;;;;;;;;;12.70;99.90;13.10;99070.00;;;;348327;27;83587;-87
2023/01/08 00:13:41;;;;;;;;;;;12.70;99.90;13.10;99079.00;;;;345111;28;94378;-88
2023/01/08 00:13:53;;;;;;;;;;;12.80;99.90;13.10;99064.00;;;;346184;28;83326;-87
2023/01/08 00:14:04;;;;;;;;;;;12.80;99.90;13.20;99071.00;;;;345642;28;96982;-87
2023/01/08 00:14:16;;;;;;;;;;;12.80;99.90;13.10;99067.00;;;;350415;27;82508;-87
2023/01/08 00:14:29;;;;;;;;;;;12.80;99.90;13.10;99088.00;;;;345126;28;98089;-87
2023/01/08 00:14:41;;;;;;;;;;;12.80;99.90;13.10;99073.00;;;;346076;28;83537;-88
2023/01/08 00:14:52;;;;;;;;;;;12.80;99.90;13.10;99063.00;;;;346616;28;96412;-88
2023/01/08 00:15:05;;;;;;;;;;;12.80;99.90;13.10;99063.00;;;;347473;28;82516;-88
2023/01/08 00:15:17;;;;;;;;;;;12.80;99.90;13.10;99077.00;;;;348111;27;93586;-88
2023/01/08 00:15:29;;;;;;;;;;;12.80;99.90;13.10;99066.00;;;;346362;28;83527;-88
2023/01/08 00:15:40;;;;;;;;;;;12.80;99.90;13.10;99050.00;;;;346752;28;96758;-87
2023/01/08 00:15:52;;;;;;;;;;;12.80;99.90;13.10;99057.00;;;;345784;28;83430;-87
2023/01/08 00:16:11;;;;;;;;;;;12.70;99.90;13.10;99064.00;;;;345114;28;97414;-88
2023/01/08 00:16:23;;;;;;;;;;;12.80;99.90;13.10;99059.00;;;;346085;28;83462;-88
2023/01/08 00:16:35;;;;;;;;;;;12.80;99.90;13.10;99038.00;;;;346172;28;97220;-88
2023/01/08 00:16:47;;;;;;;;;;;12.80;99.90;13.10;99070.00;;;;346067;28;83462;-87
2023/01/08 00:16:59;;;;;;;;;;;12.80;99.90;13.10;99083.00;;;;345325;28;95332;-88
2023/01/08 00:17:11;;;;;;;;;;;12.70;99.90;13.10;99048.00;;;;345319;28;82715;-87
2023/01/08 00:17:22;;;;;;;;;;;12.70;99.90;13.10;99060.00;;;;343987;28;96225;-88
2023/01/08 00:17:34;;;;;;;;;;;12.70;99.90;13.10;99057.00;;;;348784;27;83478;-87
2023/01/08 00:17:46;;;;;;;;;;;12.70;99.90;13.10;99049.00;;;;349526;27;97420;-88
2023/01/08 00:17:58;;;;;;;;;;;12.80;99.90;13.10;99048.00;;;;347110;28;83503;-88
2023/01/08 00:18:09;;;;;;;;;;;12.70;99.90;13.10;99039.00;;;;347872;27;96494;-88
2023/01/08 00:18:23;;;;;;;;;;;12.80;99.90;13.10;99055.00;;;;350371;27;83206;-88
2023/01/08 00:18:34;;;;;;;;;;;12.80;99.90;13.10;99052.00;;;;348042;27;96534;-88
2023/01/08 00:18:46;;;;;;;;;;;12.80;99.90;13.10;99054.00;;;;347205;28;83448;-87
2023/01/08 00:18:58;;;;;;;;;;;12.70;99.90;13.10;99051.00;;;;343914;28;97381;-88
2023/01/08 00:19:11;;;;;;;;;;;12.70;99.90;13.10;99058.00;;;;346103;28;83317;-88
2023/01/08 00:19:23;;;;;;;;;;;12.80;99.90;13.10;99048.00;;;;347964;27;96271;-88
2023/01/08 00:19:34;;;;;;;;;;;12.80;99.90;13.10;99040.00;;;;346457;28;83535;-88
2023/01/08 00:19:46;;;;;;;;;;;12.80;99.90;13.20;99040.00;;;;345361;28;96990;-87
2023/01/08 00:19:58;;;;;;;;;;;12.80;99.90;13.20;99050.00;;;;348994;27;83085;-87
2023/01/08 00:20:10;;;;;;;;;;;12.80;99.90;13.20;99038.00;;;;347307;27;96386;-88
2023/01/08 00:20:21;;;;;;;;;;;12.80;99.90;13.20;99049.00;;;;349034;27;83330;-88
2023/01/08 00:20:33;;;;;;;;;;;12.80;99.90;13.20;99050.00;;;;346689;28;95242;-87
2023/01/08 00:20:45;;;;;;;;;;;12.80;99.90;13.20;99035.00;;;;346033;28;83504;-88
2023/01/08 00:20:57;;;;;;;;;;;12.80;99.90;13.10;99024.00;;;;348065;27;96686;-87
2023/01/08 00:21:09;;;;;;;;;;;12.80;99.90;13.10;99031.00;;;;346658;27;83362;-87
2023/01/08 00:21:20;;;;;;;;;;;12.80;99.90;13.10;99033.00;;;;345311;28;96714;-88
2023/01/08 00:21:32;;;;;;;;;;;12.80;99.90;13.20;99036.00;;;;348271;27;83496;-87
2023/01/08 00:21:44;;;;;;;;;;;12.80;99.90;13.20;99030.00;;;;346771;28;96766;-87
2023/01/08 00:21:56;;;;;;;;;;;12.80;99.90;13.20;99025.00;;;;349752;27;83166;-88
2023/01/08 00:22:07;;;;;;;;;;;12.80;99.90;13.10;99032.00;;;;347900;27;95478;-88
2023/01/08 00:22:19;;;;;;;;;;;12.80;99.90;13.20;99019.00;;;;347083;28;83437;-88
2023/01/08 00:22:31;;;;;;;;;;;12.80;99.90;13.10;99022.00;;;;347910;27;97669;-87
2023/01/08 00:22:43;;;;;;;;;;;12.80;99.90;13.20;99031.00;;;;346064;28;83384;-87
2023/01/08 00:22:54;;;;;;;;;;;12.80;99.90;13.10;99038.00;;;;345783;28;97319;-88
2023/01/08 00:23:10;;;;;;;;;;;12.80;99.90;13.10;99034.00;;;;347374;28;83358;-88
2023/01/08 00:23:22;;;;;;;;;;;12.80;99.90;13.10;99021.00;;;;347286;27;94590;-88
2023/01/08 00:23:34;;;;;;;;;;;12.80;99.90;13.10;99022.00;;;;347303;28;83473;-88
2023/01/08 00:23:46;;;;;;;;;;;12.80;99.90;13.20;99017.00;;;;348108;27;96276;-88
2023/01/08 00:23:57;;;;;;;;;;;12.80;99.90;13.10;99023.00;;;;346029;28;83347;-87
2023/01/08 00:24:10;;;;;;;;;;;12.80;99.90;13.20;99016.00;;;;345217;28;96800;-88
2023/01/08 00:24:22;;;;;;;;;;;12.80;99.90;13.20;99036.00;;;;345269;28;82543;-88
2023/01/08 00:24:33;;;;;;;;;;;12.80;99.90;13.20;99032.00;;;;343406;28;95844;-87
2023/01/08 00:24:45;;;;;;;;;;;12.80;99.90;13.10;99022.00;;;;347383;28;83444;-88
2023/01/08 00:24:57;;;;;;;;;;;12.80;99.90;13.20;99029.00;;;;345733;28;96412;-88
2023/01/08 00:25:09;;;;;;;;;;;12.80;99.90;13.20;99024.00;;;;347531;28;83388;-87
2023/01/08 00:25:20;;;;;;;;;;;12.80;99.90;13.20;99038.00;;;;348060;27;94671;-88
2023/01/08 00:25:32;;;;;;;;;;;12.80;99.90;13.20;99035.00;;;;346098;28;83426;-88
2023/01/08 00:25:44;;;;;;;;;;;12.80;99.90;13.20;99044.00;;;;345974;28;94040;-88
2023/01/08 00:25:56;;;;;;;;;;;12.80;99.90;13.20;99032.00;;;;347501;28;82312;-87
2023/01/08 00:26:08;;;;;;;;;;;12.80;99.90;13.20;99016.00;;;;346760;27;93727;-87
2023/01/08 00:26:20;;;;;;;;;;;12.80;99.90;13.20;99011.00;;;;348890;27;83455;-88
2023/01/08 00:26:32;;;;;;;;;;;12.80;99.90;13.20;99024.00;;;;346625;28;98212;-88
2023/01/08 00:26:44;;;;;;;;;;;12.80;99.90;13.20;99020.00;;;;347448;28;83486;-88
2023/01/08 00:26:55;;;;;;;;;;;12.80;99.90;13.20;99021.00;;;;346541;28;96880;-87
2023/01/08 00:27:07;;;;;;;;;;;12.80;99.90;13.20;99025.00;;;;347594;28;82383;-87
2023/01/08 00:27:19;;;;;;;;;;;12.80;99.90;13.20;99027.00;;;;347876;27;94512;-87
2023/01/08 00:27:31;;;;;;;;;;;12.80;99.90;13.20;99031.00;;;;349636;27;82564;-88
2023/01/08 00:27:43;;;;;;;;;;;12.80;99.90;13.20;99016.00;;;;346773;28;93177;-88
2023/01/08 00:27:55;;;;;;;;;;;12.80;99.90;13.20;99016.00;;;;348417;27;83188;-88
2023/01/08 00:28:06;;;;;;;;;;;12.80;99.90;13.20;99028.00;;;;347990;27;93725;-88
2023/01/08 00:28:19;;;;;;;;;;;12.80;99.90;13.20;99004.00;;;;346036;28;84095;-87
2023/01/08 00:28:31;;;;;;;;;;;12.80;99.90;13.20;99033.00;;;;346686;28;97778;-88
2023/01/08 00:28:43;;;;;;;;;;;12.80;99.90;13.20;99013.00;;;;347512;28;83452;-88
2023/01/08 00:28:55;;;;;;;;;;;12.80;99.90;13.20;99019.00;;;;347561;27;94204;-88
2023/01/08 00:29:07;;;;;;;;;;;12.80;99.90;13.20;99042.00;;;;346080;28;83329;-88
2023/01/08 00:29:18;;;;;;;;;;;12.80;99.90;13.20;99037.00;;;;343983;28;93787;-88
2023/01/08 00:29:30;;;;;;;;;;;12.80;99.90;13.20;99027.00;;;;345994;28;83358;-88
2023/01/08 00:29:42;;;;;;;;;;;12.80;99.90;13.20;99029.00;;;;347235;27;96281;-88
2023/01/08 00:29:54;;;;;;;;;;;12.80;99.90;13.20;99016.00;;;;344753;28;82526;-88
2023/01/08 00:30:06;;;;;;;;;;;12.90;99.90;13.20;99014.00;;;;345158;28;96776;-87
2023/01/08 00:30:18;;;;;;;;;;;12.80;99.90;13.30;99039.00;;;;346373;28;83411;-88
2023/01/08 00:30:29;;;;;;;;;;;12.90;99.90;13.30;99025.00;;;;343207;28;95258;-88
2023/01/08 00:30:41;;;;;;;;;;;12.90;99.90;13.30;99021.00;;;;345994;28;83446;-88
2023/01/08 00:30:53;;;;;;;;;;;12.90;99.90;13.30;99038.00;;;;345247;28;95277;-88
2023/01/08 00:31:06;;;;;;;;;;;12.90;99.90;13.30;99037.00;;;;346026;28;83292;-88
2023/01/08 00:31:18;;;;;;;;;;;12.90;99.90;13.30;99044.00;;;;345291;28;94470;-88
2023/01/08 00:31:30;;;;;;;;;;;12.90;99.90;13.30;99048.00;;;;346837;28;83387;-87
2023/01/08 00:31:42;;;;;;;;;;;12.90;99.90;13.20;99039.00;;;;346248;28;97644;-88
2023/01/08 00:31:53;;;;;;;;;;;12.90;99.90;13.20;99037.00;;;;343354;28;83304;-88
2023/01/08 00:32:05;;;;;;;;;;;12.90;99.90;13.20;99029.00;;;;346694;28;95990;-88
2023/01/08 00:32:17;;;;;;;;;;;12.90;99.90;13.30;99028.00;;;;348491;27;82591;-88
2023/01/08 00:32:29;;;;;;;;;;;12.90;99.90;13.30;99024.00;;;;346172;28;97304;-88
2023/01/08 00:32:40;;;;;;;;;;;12.90;99.90;13.20;99018.00;;;;347336;28;83548;-88
2023/01/08 00:32:52;;;;;;;;;;;12.90;99.90;13.30;99030.00;;;;346240;28;96657;-88
2023/01/08 00:33:04;;;;;;;;;;;12.90;99.90;13.30;99016.00;;;;348824;27;83381;-87
2023/01/08 00:33:16;;;;;;;;;;;12.90;99.90;13.30;99019.00;;;;345381;28;93902;-87
2023/01/08 00:33:27;;;;;;;;;;;12.90;99.90;13.30;99037.00;;;;344810;28;82429;-88
2023/01/08 00:33:39;;;;;;;;;;;12.90;99.90;13.30;99020.00;;;;346729;28;93039;-88
2023/01/08 00:33:51;;;;;;;;;;;12.90;99.90;13.30;98994.00;;;;347443;28;83296;-87
2023/01/08 00:34:03;;;;;;;;;;;12.90;99.90;13.30;99020.00;;;;348036;27;95947;-88
2023/01/08 00:34:14;;;;;;;;;;;12.90;99.90;13.30;99026.00;;;;345980;28;83548;-88
2023/01/08 00:34:26;;;;;;;;;;;12.90;99.90;13.30;99031.00;;;;343796;28;98107;-87
2023/01/08 00:34:38;;;;;;;;;;;12.90;99.90;13.30;99040.00;;;;346112;28;82524;-88
2023/01/08 00:34:50;;;;;;;;;;;12.90;99.90;13.30;99031.00;;;;346471;27;96971;-88
2023/01/08 00:35:02;;;;;;;;;;;12.90;99.90;13.30;99017.00;;;;347568;28;82506;-89
2023/01/08 00:35:14;;;;;;;;;;;12.90;99.90;13.30;99022.00;;;;344022;28;96092;-88
2023/01/08 00:35:25;;;;;;;;;;;12.90;99.90;13.30;99026.00;;;;346860;28;83454;-88
2023/01/08 00:35:37;;;;;;;;;;;12.90;99.90;13.30;99022.00;;;;346686;28;94826;-88
2023/01/08 00:35:49;;;;;;;;;;;12.90;99.90;13.30;99030.00;;;;347050;28;83513;-88
2023/01/08 00:36:08;;;;;;;;;;;12.90;99.90;13.30;99026.00;;;;346807;27;96632;-88
2023/01/08 00:36:20;;;;;;;;;;;12.90;99.90;13.30;99027.00;;;;348759;27;83509;-88
2023/01/08 00:36:32;;;;;;;;;;;13.00;99.90;13.30;99030.00;;;;346694;28;94821;-88
2023/01/08 00:36:44;;;;;;;;;;;12.90;99.90;13.30;99014.00;;;;349934;27;83506;-88
2023/01/08 00:36:55;;;;;;;;;;;13.00;99.90;13.30;99027.00;;;;347938;27;96576;-89
2023/01/08 00:37:07;;;;;;;;;;;12.90;99.90;13.30;99035.00;;;;348949;27;83302;-89
2023/01/08 00:37:19;;;;;;;;;;;12.90;99.90;13.30;99023.00;;;;348195;27;96192;-87
2023/01/08 00:37:31;;;;;;;;;;;12.90;99.90;13.30;99022.00;;;;345942;28;83482;-88
2023/01/08 00:37:42;;;;;;;;;;;12.90;99.90;13.30;99018.00;;;;346736;28;97154;-88
2023/01/08 00:37:54;;;;;;;;;;;12.90;99.90;13.30;99030.00;;;;346119;28;83281;-88
2023/01/08 00:38:06;;;;;;;;;;;13.00;99.90;13.30;99012.00;;;;345732;27;95716;-86
2023/01/08 00:38:18;;;;;;;;;;;12.90;99.90;13.30;99008.00;;;;346100;28;82551;-88
2023/01/08 00:38:29;;;;;;;;;;;12.90;99.90;13.30;99025.00;;;;345302;28;94376;-87
2023/01/08 00:38:42;;;;;;;;;;;12.90;99.90;13.30;99008.00;;;;347384;28;83408;-87
2023/01/08 00:38:53;;;;;;;;;;;12.90;99.90;13.30;99020.00;;;;348013;27;97123;-88
2023/01/08 00:39:05;;;;;;;;;;;12.90;99.90;13.30;99027.00;;;;347128;28;82557;-88
2023/01/08 00:39:17;;;;;;;;;;;13.00;99.90;13.30;99017.00;;;;345298;28;94137;-88
2023/01/08 00:39:29;;;;;;;;;;;12.90;99.90;13.30;99011.00;;;;346093;28;83196;-88
2023/01/08 00:39:40;;;;;;;;;;;12.90;99.90;13.30;99030.00;;;;345274;28;97221;-87
2023/01/08 00:39:52;;;;;;;;;;;12.90;99.90;13.30;99028.00;;;;346029;28;83462;-88
2023/01/08 00:40:05;;;;;;;;;;;13.00;99.90;13.30;99016.00;;;;345300;28;94562;-87
2023/01/08 00:40:16;;;;;;;;;;;13.00;99.90;13.30;99021.00;;;;344741;28;83473;-87
2023/01/08 00:40:28;;;;;;;;;;;12.90;99.90;13.30;99017.00;;;;345189;28;97618;-87
2023/01/08 00:40:40;;;;;;;;;;;12.90;99.90;13.30;99011.00;;;;348873;27;82463;-87
2023/01/08 00:40:52;;;;;;;;;;;12.90;99.90;13.30;99017.00;;;;348444;27;97486;-87
2023/01/08 00:41:03;;;;;;;;;;;12.90;99.90;13.30;99019.00;;;;348890;27;83429;-88
2023/01/08 00:41:15;;;;;;;;;;;13.00;99.90;13.30;99024.00;;;;346536;28;97259;-88
2023/01/08 00:41:27;;;;;;;;;;;13.00;99.90;13.30;98993.00;;;;348806;27;83362;-88
2023/01/08 00:41:43;;;;;;;;;;;12.90;99.90;13.30;99009.00;;;;346356;27;96461;-87
2023/01/08 00:41:54;;;;;;;;;;;12.90;99.90;13.20;99000.00;;;;345814;28;82403;-87
2023/01/08 00:42:06;;;;;;;;;;;12.90;99.90;13.30;99015.00;;;;346013;28;92673;-87
2023/01/08 00:42:18;;;;;;;;;;;13.00;99.90;13.20;99004.00;;;;346252;28;83485;-88
2023/01/08 00:42:29;;;;;;;;;;;12.90;99.90;13.20;99003.00;;;;345139;28;98497;-88
2023/01/08 00:42:41;;;;;;;;;;;12.90;99.90;13.20;99010.00;;;;345016;28;82419;-88
2023/01/08 00:42:53;;;;;;;;;;;12.90;99.90;13.30;99009.00;;;;349346;27;96736;-87
2023/01/08 00:43:05;;;;;;;;;;;12.90;99.90;13.30;99006.00;;;;346182;28;83291;-87
2023/01/08 00:43:17;;;;;;;;;;;12.90;99.90;13.30;99021.00;;;;347828;27;93792;-88
2023/01/08 00:43:29;;;;;;;;;;;12.90;99.90;13.30;99018.00;;;;348726;27;83504;-88
2023/01/08 00:43:41;;;;;;;;;;;12.90;99.90;13.30;99005.00;;;;344048;28;96904;-88
2023/01/08 00:43:52;;;;;;;;;;;12.90;99.90;13.30;99009.00;;;;344677;28;83485;-88
2023/01/08 00:44:04;;;;;;;;;;;12.90;99.90;13.30;98996.00;;;;345216;28;96662;-88
2023/01/08 00:44:16;;;;;;;;;;;12.90;99.90;13.30;99010.00;;;;343474;28;82588;-87
2023/01/08 00:44:28;;;;;;;;;;;13.00;99.90;13.30;99002.00;;;;346691;27;96658;-87
2023/01/08 00:44:40;;;;;;;;;;;12.90;99.90;13.30;99006.00;;;;348893;27;82506;-87
2023/01/08 00:44:51;;;;;;;;;;;12.90;99.90;13.30;99003.00;;;;347022;27;95565;-87
2023/01/08 00:45:04;;;;;;;;;;;12.90;99.90;13.20;99001.00;;;;348859;27;83328;-88
2023/01/08 00:45:16;;;;;;;;;;;12.90;99.90;13.30;99007.00;;;;347975;27;96549;-87
2023/01/08 00:45:27;;;;;;;;;;;12.90;99.90;13.20;98991.00;;;;348682;27;83380;-88
2023/01/08 00:45:39;;;;;;;;;;;12.90;99.90;13.30;98986.00;;;;348101;27;97247;-87
2023/01/08 00:45:52;;;;;;;;;;;12.90;99.90;13.30;99006.00;;;;348523;27;83498;-88
2023/01/08 00:46:05;;;;;;;;;;;12.90;99.90;13.20;98996.00;;;;349487;27;93875;-87
2023/01/08 00:46:16;;;;;;;;;;;12.90;99.90;13.30;98985.00;;;;347403;28;83375;-88
2023/01/08 00:46:28;;;;;;;;;;;12.90;99.90;13.30;99004.00;;;;346703;28;97671;-87
2023/01/08 00:46:40;;;;;;;;;;;12.90;99.90;13.30;99000.00;;;;348041;27;83249;-88
2023/01/08 00:46:52;;;;;;;;;;;12.90;99.90;13.30;98999.00;;;;346661;28;96201;-87
2023/01/08 00:47:03;;;;;;;;;;;12.90;99.90;13.30;98996.00;;;;344678;28;83361;-87
2023/01/08 00:47:15;;;;;;;;;;;12.90;99.90;13.30;99004.00;;;;347877;27;97277;-87
2023/01/08 00:47:27;;;;;;;;;;;12.90;99.90;13.20;98991.00;;;;347456;28;83194;-87
2023/01/08 00:47:39;;;;;;;;;;;12.90;99.90;13.20;98996.00;;;;349433;27;93465;-87
2023/01/08 00:47:50;;;;;;;;;;;12.90;99.90;13.20;98997.00;;;;347278;28;83386;-87
2023/01/08 00:48:02;;;;;;;;;;;12.90;99.90;13.30;98995.00;;;;346368;28;96808;-87
2023/01/08 00:48:14;;;;;;;;;;;12.90;99.90;13.30;98997.00;;;;347032;28;83583;-87
2023/01/08 00:48:26;;;;;;;;;;;12.90;99.90;13.30;98995.00;;;;347893;27;98357;-88
2023/01/08 00:48:38;;;;;;;;;;;12.90;99.90;13.30;99004.00;;;;347435;28;83547;-88
2023/01/08 00:48:49;;;;;;;;;;;12.90;99.90;13.20;98998.00;;;;347987;27;93824;-88
2023/01/08 00:49:01;;;;;;;;;;;12.90;99.90;13.20;99007.00;;;;347372;28;83457;-87
2023/01/08 00:49:13;;;;;;;;;;;12.90;99.90;13.20;99001.00;;;;348019;27;94661;-87
2023/01/08 00:49:25;;;;;;;;;;;12.90;99.90;13.20;98994.00;;;;347422;28;83309;-88
2023/01/08 00:49:37;;;;;;;;;;;12.90;99.90;13.20;99000.00;;;;345222;28;94214;-87
2023/01/08 00:49:49;;;;;;;;;;;12.90;99.90;13.20;99000.00;;;;348481;27;82699;-87
2023/01/08 00:50:01;;;;;;;;;;;12.90;99.90;13.20;98995.00;;;;346587;28;96745;-87
2023/01/08 00:50:12;;;;;;;;;;;12.90;99.90;13.20;98996.00;;;;346502;28;83298;-87
2023/01/08 00:50:24;;;;;;;;;;;12.90;99.90;13.20;98993.00;;;;346553;28;98029;-88
2023/01/08 00:50:36;;;;;;;;;;;12.90;99.90;13.20;98994.00;;;;347417;28;83320;-87
2023/01/08 00:50:48;;;;;;;;;;;12.90;99.90;13.20;99006.00;;;;345879;28;94850;-87
2023/01/08 00:51:00;;;;;;;;;;;12.90;99.90;13.20;98995.00;;;;345946;28;83498;-87
2023/01/08 00:51:12;;;;;;;;;;;12.90;99.90;13.20;99008.00;;;;345284;28;93124;-87
2023/01/08 00:51:25;;;;;;;;;;;12.90;99.90;13.20;98993.00;;;;347215;28;83290;-87
2023/01/08 00:51:36;;;;;;;;;;;12.90;99.90;13.20;99007.00;;;;345114;28;94237;-87
2023/01/08 00:51:48;;;;;;;;;;;12.90;99.90;13.30;98998.00;;;;346213;28;82440;-88
2023/01/08 00:52:00;;;;;;;;;;;12.90;99.90;13.30;99002.00;;;;346590;28;94113;-87
2023/01/08 00:52:12;;;;;;;;;;;12.90;99.90;13.20;99004.00;;;;344793;28;82604;-88
2023/01/08 00:52:24;;;;;;;;;;;12.90;99.90;13.20;99001.00;;;;346722;28;98177;-88
2023/01/08 00:52:35;;;;;;;;;;;12.90;99.90;13.20;99005.00;;;;347393;28;83391;-87
2023/01/08 00:52:47;;;;;;;;;;;12.90;99.90;13.20;99010.00;;;;347363;27;96954;-87
2023/01/08 00:52:59;;;;;;;;;;;12.90;99.90;13.20;99013.00;;;;347499;28;82524;-88
2023/01/08 00:53:11;;;;;;;;;;;12.90;99.90;13.20;99003.00;;;;348009;27;96265;-87
2023/01/08 00:53:23;;;;;;;;;;;12.90;99.90;13.20;99000.00;;;;347419;28;83530;-87
2023/01/08 00:53:36;;;;;;;;;;;12.80;99.90;13.20;98994.00;;;;346716;27;94196;-87
2023/01/08 00:53:48;;;;;;;;;;;12.80;99.90;13.20;99005.00;;;;348073;27;82662;-88
2023/01/08 00:54:00;;;;;;;;;;;12.90;99.90;13.20;99023.00;;;;346755;28;93608;-87
2023/01/08 00:54:12;;;;;;;;;;;12.80;99.90;13.20;99007.00;;;;348729;27;82514;-87
2023/01/08 00:54:23;;;;;;;;;;;12.80;99.90;13.20;99012.00;;;;346243;28;95159;-88
2023/01/08 00:54:35;;;;;;;;;;;12.80;99.90;13.20;99007.00;;;;347470;28;83303;-87
2023/01/08 00:54:47;;;;;;;;;;;12.80;99.90;13.20;99002.00;;;;346537;27;96223;-87
2023/01/08 00:54:59;;;;;;;;;;;12.80;99.90;13.20;99000.00;;;;347424;28;82494;-87
2023/01/08 00:55:10;;;;;;;;;;;12.80;99.90;13.20;99010.00;;;;345279;28;94109;-87
2023/01/08 00:55:22;;;;;;;;;;;12.80;99.90;13.20;98995.00;;;;346120;28;82384;-88
2023/01/08 00:55:34;;;;;;;;;;;12.80;99.90;13.20;99006.00;;;;346599;27;97317;-87
2023/01/08 00:55:46;;;;;;;;;;;12.80;99.90;13.20;98997.00;;;;348108;27;83438;-87
2023/01/08 00:56:01;;;;;;;;;;;12.80;99.90;13.20;98991.00;;;;347920;27;97145;-87
2023/01/08 00:56:13;;;;;;;;;;;12.90;99.90;13.20;99005.00;;;;348869;27;83330;-87
2023/01/08 00:56:25;;;;;;;;;;;12.80;99.90;13.20;99015.00;;;;348044;27;97398;-87
2023/01/08 00:56:36;;;;;;;;;;;12.90;99.90;13.30;99014.00;;;;347327;28;83384;-87
2023/01/08 00:56:48;;;;;;;;;;;12.90;99.90;13.20;99015.00;;;;343593;28;97318;-87
2023/01/08 00:57:00;;;;;;;;;;;12.90;99.90;13.30;99012.00;;;;347297;28;83331;-87
2023/01/08 00:57:12;;;;;;;;;;;12.90;99.90;13.30;99006.00;;;;346553;28;95953;-87
2023/01/08 00:57:24;;;;;;;;;;;12.90;99.90;13.20;99012.00;;;;346041;28;83486;-87
2023/01/08 00:57:36;;;;;;;;;;;12.80;99.90;13.20;99003.00;;;;346598;27;94324;-87
2023/01/08 00:57:48;;;;;;;;;;;12.80;99.90;13.20;99013.00;;;;347348;28;83443;-87
2023/01/08 00:58:00;;;;;;;;;;;12.90;99.90;13.20;99006.00;;;;345204;28;97222;-87
2023/01/08 00:58:12;;;;;;;;;;;12.90;99.90;13.20;99003.00;;;;346036;28;82560;-87
2023/01/08 00:58:23;;;;;;;;;;;12.80;99.90;13.20;99005.00;;;;343813;28;97680;-87
2023/01/08 00:58:35;;;;;;;;;;;12.90;99.90;13.20;99012.00;;;;347335;28;83421;-87
2023/01/08 00:58:47;;;;;;;;;;;12.90;99.90;13.20;99001.00;;;;345201;28;96213;-88
2023/01/08 00:58:59;;;;;;;;;;;12.80;99.90;13.20;98990.00;;;;344691;28;82589;-88
2023/01/08 00:59:11;;;;;;;;;;;12.80;99.90;13.20;99001.00;;;;345255;28;94285;-88
2023/01/08 00:59:22;;;;;;;;;;;12.90;99.90;13.20;99012.00;;;;348867;27;82411;-87